createdAt,value
2023-05-09T00:01:41.452Z,56.65
2023-05-09T00:04:26.477Z,56.79
2023-05-09T00:07:11.440Z,56.73
2023-05-09T00:09:56.281Z,56.54
2023-05-09T00:12:41.237Z,56.72
2023-05-09T00:15:26.095Z,56.49
2023-05-09T00:18:11.239Z,56.22
2023-05-09T00:20:56.297Z,56.64
2023-05-09T00:23:41.348Z,56.73
2023-05-09T00:26:26.223Z,56.78
2023-05-09T00:29:11.177Z,56.62
2023-05-09T00:31:56.256Z,56.91
2023-05-09T00:34:41.129Z,55.92
2023-05-09T00:37:26.108Z,56.54
2023-05-09T00:40:11.057Z,56.30
2023-05-09T00:42:56.196Z,55.40
2023-05-09T00:45:41.118Z,55.03
2023-05-09T00:48:26.133Z,55.33
2023-05-09T00:51:11.014Z,54.98
2023-05-09T00:53:56.100Z,55.40
2023-05-09T00:56:41.551Z,56.21
2023-05-09T00:59:26.430Z,56.68
2023-05-09T01:02:11.498Z,56.67
2023-05-09T01:04:56.365Z,57.32
2023-05-09T01:07:41.454Z,57.37
2023-05-09T01:10:26.451Z,57.98
2023-05-09T01:13:12.337Z,57.82
2023-05-09T01:15:57.479Z,58.10
2023-05-09T01:18:42.308Z,57.80
2023-05-09T01:21:27.204Z,58.02
2023-05-09T01:24:12.092Z,57.71
2023-05-09T01:26:57.029Z,57.89
2023-05-09T01:29:42.013Z,57.72
2023-05-09T01:32:26.997Z,57.88
2023-05-09T01:35:11.895Z,57.76
2023-05-09T01:37:56.708Z,57.51
2023-05-09T01:40:41.771Z,57.59
2023-05-09T01:43:26.641Z,57.99
2023-05-09T01:46:11.680Z,57.83
2023-05-09T01:48:56.577Z,58.21
2023-05-09T01:51:43.663Z,58.02
2023-05-09T01:54:29.087Z,58.14
2023-05-09T01:57:14.022Z,57.54
2023-05-09T01:59:59.239Z,57.41
2023-05-09T02:02:44.109Z,57.65
2023-05-09T02:05:28.935Z,57.70
2023-05-09T02:08:13.926Z,57.92
2023-05-09T02:10:58.976Z,57.83
2023-05-09T02:13:43.988Z,58.19
2023-05-09T02:16:28.904Z,58.21
2023-05-09T02:19:13.899Z,58.18
2023-05-09T02:21:59.015Z,58.52
2023-05-09T02:24:44.131Z,58.71
2023-05-09T02:27:29.128Z,58.95
2023-05-09T02:30:14.116Z,58.88
2023-05-09T02:32:59.212Z,58.97
2023-05-09T02:35:44.015Z,59.33
2023-05-09T02:38:28.760Z,59.48
2023-05-09T02:41:13.600Z,59.42
2023-05-09T02:44:00.121Z,59.34
2023-05-09T02:46:45.127Z,59.27
2023-05-09T02:49:32.451Z,59.18
2023-05-09T02:52:17.697Z,58.94
2023-05-09T02:55:03.689Z,58.77
2023-05-09T02:57:50.405Z,58.87
2023-05-09T03:00:36.887Z,59.08
2023-05-09T03:03:22.213Z,58.80
2023-05-09T03:06:07.167Z,59.11
2023-05-09T03:08:52.825Z,59.04
2023-05-09T03:11:37.841Z,58.95
2023-05-09T03:14:22.600Z,59.42
2023-05-09T03:17:07.644Z,59.78
2023-05-09T03:19:52.607Z,59.18
2023-05-09T03:22:37.447Z,59.08
2023-05-09T03:25:22.554Z,59.13
2023-05-09T03:28:07.257Z,59.45
2023-05-09T03:30:52.345Z,59.05
2023-05-09T03:33:37.294Z,59.55
2023-05-09T03:36:22.316Z,59.49
2023-05-09T03:39:07.179Z,59.60
2023-05-09T03:41:52.097Z,59.64
2023-05-09T03:44:37.080Z,59.64
2023-05-09T03:47:21.998Z,60.12
2023-05-09T03:50:06.984Z,59.85
2023-05-09T03:52:51.881Z,60.26
2023-05-09T03:55:36.886Z,60.33
2023-05-09T03:58:21.780Z,60.04
2023-05-09T04:01:06.746Z,59.93
2023-05-09T04:03:51.744Z,59.42
2023-05-09T04:06:36.734Z,59.98
2023-05-09T04:09:21.895Z,59.67
2023-05-09T04:12:06.968Z,59.76
2023-05-09T04:14:52.740Z,60.10
2023-05-09T04:17:37.766Z,59.88
2023-05-09T04:20:22.742Z,59.44
2023-05-09T04:23:07.654Z,59.43
2023-05-09T04:25:52.662Z,59.87
2023-05-09T04:28:37.578Z,59.76
2023-05-09T04:31:22.818Z,59.77
2023-05-09T04:34:08.019Z,59.85
2023-05-09T04:36:52.808Z,59.58
2023-05-09T04:39:37.703Z,59.72
2023-05-09T04:42:22.642Z,59.61
2023-05-09T04:45:07.556Z,59.85
2023-05-09T04:47:52.284Z,59.70
2023-05-09T04:50:37.117Z,60.44
2023-05-09T04:53:22.211Z,60.07
2023-05-09T04:56:07.270Z,60.30
2023-05-09T04:58:52.296Z,60.20
2023-05-09T05:01:37.112Z,60.20
2023-05-09T05:04:21.722Z,60.34
2023-05-09T05:07:06.676Z,60.92
2023-05-09T05:09:51.617Z,60.48
2023-05-09T05:12:36.681Z,60.12
2023-05-09T05:15:21.566Z,59.88
2023-05-09T05:18:06.575Z,60.11
2023-05-09T05:20:51.485Z,60.11
2023-05-09T05:23:36.724Z,60.67
2023-05-09T05:26:21.742Z,60.78
2023-05-09T05:29:06.860Z,60.63
2023-05-09T05:31:51.750Z,61.02
2023-05-09T05:34:36.696Z,60.21
2023-05-09T05:37:21.582Z,58.95
2023-05-09T05:40:06.728Z,58.77
2023-05-09T05:42:51.928Z,59.23
2023-05-09T05:45:37.006Z,59.10
2023-05-09T05:48:22.042Z,59.22
2023-05-09T05:51:06.932Z,59.79
2023-05-09T05:53:51.971Z,60.02
2023-05-09T05:56:36.894Z,59.97
2023-05-09T05:59:21.795Z,60.30
2023-05-09T06:02:06.793Z,61.30
2023-05-09T06:04:53.293Z,60.75
2023-05-09T06:07:38.856Z,60.33
2023-05-09T06:10:23.682Z,59.99
2023-05-09T06:13:08.761Z,60.86
2023-05-09T06:15:53.767Z,60.00
2023-05-09T06:18:39.227Z,58.19
2023-05-09T06:21:24.244Z,58.29
2023-05-09T06:24:16.568Z,58.52
2023-05-09T06:27:08.832Z,57.40
2023-05-09T06:29:53.766Z,56.32
2023-05-09T06:32:38.816Z,55.85
2023-05-09T06:35:23.643Z,56.37
2023-05-09T06:38:08.704Z,57.11
2023-05-09T06:40:53.637Z,56.72
2023-05-09T06:43:38.675Z,56.94
2023-05-09T06:46:23.673Z,56.85
2023-05-09T06:49:08.608Z,57.09
2023-05-09T06:51:53.589Z,57.77
2023-05-09T06:54:38.449Z,57.70
2023-05-09T06:57:23.412Z,57.93
2023-05-09T07:00:08.364Z,59.07
2023-05-09T07:02:53.492Z,59.37
2023-05-09T07:05:38.288Z,59.01
2023-05-09T07:08:23.068Z,59.42
2023-05-09T07:11:08.132Z,59.08
2023-05-09T07:13:53.300Z,60.47
2023-05-09T07:16:38.459Z,60.09
2023-05-09T07:19:23.392Z,58.61
2023-05-09T07:22:08.433Z,58.96
2023-05-09T07:24:53.294Z,58.86
2023-05-09T07:27:38.432Z,58.13
2023-05-09T07:30:23.450Z,57.91
2023-05-09T07:33:08.311Z,58.62
2023-05-09T07:35:53.603Z,58.84
2023-05-09T07:38:38.637Z,58.25
2023-05-09T07:41:23.674Z,58.03
2023-05-09T07:44:08.561Z,57.42
2023-05-09T07:46:53.592Z,57.38
2023-05-09T07:49:38.467Z,56.96
2023-05-09T07:52:23.373Z,56.09
2023-05-09T07:55:08.213Z,55.85
2023-05-09T07:57:53.219Z,55.87
2023-05-09T08:00:38.099Z,56.55
2023-05-09T08:03:23.223Z,56.83
2023-05-09T08:06:08.160Z,56.26
2023-05-09T08:08:53.030Z,56.10
2023-05-09T08:11:38.044Z,56.98
2023-05-09T08:14:22.784Z,56.02
2023-05-09T08:17:07.791Z,56.96
2023-05-09T08:19:52.941Z,55.92
2023-05-09T08:22:37.899Z,55.34
2023-05-09T08:25:22.933Z,53.38
2023-05-09T08:28:07.855Z,55.15
2023-05-09T08:30:52.836Z,55.99
2023-05-09T08:33:39.323Z,53.58
2023-05-09T08:36:25.587Z,53.49
2023-05-09T08:39:10.497Z,52.92
2023-05-09T08:41:55.597Z,52.51
2023-05-09T08:44:40.532Z,52.08
2023-05-09T08:47:25.444Z,51.98
2023-05-09T08:50:10.482Z,51.74
2023-05-09T08:52:55.407Z,52.57
2023-05-09T08:55:40.397Z,51.81
2023-05-09T08:58:25.341Z,50.17
2023-05-09T09:01:10.370Z,50.25
2023-05-09T09:03:55.442Z,48.79
2023-05-09T09:06:40.328Z,49.00
2023-05-09T09:09:25.350Z,48.82
2023-05-09T09:12:10.106Z,48.78
2023-05-09T09:14:55.150Z,49.80
2023-05-09T09:17:40.182Z,48.84
2023-05-09T09:20:25.092Z,49.06
2023-05-09T09:23:09.881Z,48.32
2023-05-09T09:25:54.845Z,47.30
2023-05-09T09:28:39.936Z,47.11
2023-05-09T09:31:24.852Z,47.58
2023-05-09T09:34:09.709Z,47.22
2023-05-09T09:36:54.749Z,47.20
2023-05-09T09:39:39.669Z,46.44
2023-05-09T09:42:24.619Z,44.01
2023-05-09T09:45:09.624Z,44.42
2023-05-09T09:47:54.636Z,44.95
2023-05-09T09:50:39.373Z,45.59
2023-05-09T09:53:24.282Z,46.06
2023-05-09T09:56:09.231Z,46.14
2023-05-09T09:58:54.354Z,45.59
2023-05-09T10:01:39.117Z,45.25
2023-05-09T10:04:24.042Z,45.80
2023-05-09T10:07:11.093Z,45.18
2023-05-09T10:09:57.596Z,43.61
2023-05-09T10:12:42.466Z,43.51
2023-05-09T10:15:28.716Z,43.50
2023-05-09T10:18:14.982Z,40.95
2023-05-09T10:21:00.356Z,40.82
2023-05-09T10:23:45.286Z,39.76
2023-05-09T10:26:30.230Z,40.00
2023-05-09T10:29:14.815Z,40.45
2023-05-09T10:31:59.781Z,38.94
2023-05-09T10:34:44.723Z,40.64
2023-05-09T10:37:30.947Z,39.74
2023-05-09T10:40:16.450Z,37.17
2023-05-09T10:43:01.478Z,38.19
2023-05-09T10:45:46.580Z,37.77
2023-05-09T10:48:31.515Z,37.65
2023-05-09T10:51:16.514Z,38.83
2023-05-09T10:54:01.471Z,39.23
2023-05-09T10:56:46.382Z,38.60
2023-05-09T10:59:31.393Z,40.17
2023-05-09T11:02:16.404Z,40.05
2023-05-09T11:05:01.407Z,39.36
2023-05-09T11:07:46.495Z,37.82
2023-05-09T11:10:31.354Z,39.00
2023-05-09T11:13:16.491Z,38.67
2023-05-09T11:16:01.489Z,39.16
2023-05-09T11:18:46.403Z,39.07
2023-05-09T11:21:31.412Z,39.54
2023-05-09T11:24:16.566Z,39.64
2023-05-09T11:27:01.548Z,39.58
2023-05-09T11:29:46.538Z,40.88
2023-05-09T11:32:31.486Z,42.09
2023-05-09T11:35:16.662Z,40.53
2023-05-09T11:38:01.610Z,39.96
2023-05-09T11:40:46.585Z,40.15
2023-05-09T11:43:31.586Z,39.31
2023-05-09T11:46:16.565Z,39.51
2023-05-09T11:49:01.568Z,39.10
2023-05-09T11:51:49.325Z,38.39
2023-05-09T11:54:34.368Z,37.82
2023-05-09T11:57:19.534Z,38.00
2023-05-09T12:00:04.316Z,39.60
2023-05-09T12:02:49.456Z,39.64
2023-05-09T12:05:34.313Z,40.15
2023-05-09T12:08:19.219Z,39.30
2023-05-09T12:11:04.100Z,39.02
2023-05-09T12:13:49.134Z,39.27
2023-05-09T12:16:36.920Z,38.99
2023-05-09T12:19:21.798Z,39.13
2023-05-09T12:22:06.936Z,42.41
2023-05-09T12:24:51.730Z,41.22
2023-05-09T12:27:36.852Z,42.71
2023-05-09T12:30:21.916Z,44.13
2023-05-09T12:33:06.878Z,42.35
2023-05-09T12:35:52.858Z,43.19
2023-05-09T12:38:38.776Z,43.94
2023-05-09T12:41:37.120Z,45.17
2023-05-09T12:44:24.130Z,44.50
2023-05-09T12:47:09.120Z,45.71
2023-05-09T12:49:54.045Z,44.42
2023-05-09T12:52:46.933Z,44.69
2023-05-09T12:55:43.572Z,43.68
2023-05-09T12:58:28.524Z,44.00
2023-05-09T13:01:13.420Z,44.03
2023-05-09T13:03:58.245Z,43.59
2023-05-09T13:06:43.067Z,43.37
2023-05-09T13:09:28.176Z,43.41
2023-05-09T13:12:13.038Z,44.20
2023-05-09T13:14:58.104Z,44.35
2023-05-09T13:17:43.105Z,45.39
2023-05-09T13:20:27.909Z,45.58
2023-05-09T13:23:12.942Z,42.75
2023-05-09T13:25:57.869Z,40.15
2023-05-09T13:28:42.584Z,41.36
2023-05-09T13:31:27.341Z,43.92
2023-05-09T13:34:12.454Z,46.15
2023-05-09T13:36:57.453Z,47.06
2023-05-09T13:39:42.373Z,46.47
2023-05-09T13:42:27.253Z,45.71
2023-05-09T13:45:12.450Z,46.23
2023-05-09T13:47:57.184Z,46.07
2023-05-09T13:50:42.143Z,47.95
2023-05-09T13:53:26.861Z,49.32
2023-05-09T13:56:11.747Z,50.19
2023-05-09T13:58:56.789Z,49.55
2023-05-09T14:01:43.637Z,48.91
2023-05-09T14:04:28.701Z,48.56
2023-05-09T14:07:13.565Z,49.04
2023-05-09T14:10:10.491Z,48.75
2023-05-09T14:12:56.390Z,48.57
2023-05-09T14:15:41.285Z,48.93
2023-05-09T14:18:26.168Z,49.28
2023-05-09T14:21:11.127Z,50.62
2023-05-09T14:23:56.161Z,51.46
2023-05-09T14:29:25.777Z,52.25
2023-05-09T14:32:10.752Z,52.68
2023-05-09T14:34:55.813Z,52.67
2023-05-09T14:37:40.464Z,53.17
2023-05-09T14:40:27.915Z,52.65
2023-05-09T14:43:13.008Z,52.84
2023-05-09T14:45:57.869Z,51.60
2023-05-09T14:48:42.853Z,47.44
2023-05-09T14:51:27.788Z,46.00
2023-05-09T14:54:12.967Z,45.71
2023-05-09T14:56:57.942Z,48.04
2023-05-09T14:59:42.897Z,48.38
2023-05-09T15:02:27.906Z,50.38
2023-05-09T15:05:12.671Z,51.45
2023-05-09T15:07:57.647Z,52.70
2023-05-09T15:10:42.416Z,52.88
2023-05-09T15:13:27.488Z,53.65
2023-05-09T15:16:12.422Z,54.11
2023-05-09T15:18:57.329Z,54.12
2023-05-09T15:21:42.249Z,54.56
2023-05-09T15:24:27.324Z,54.53
2023-05-09T15:27:12.182Z,53.59
2023-05-09T15:29:57.147Z,54.55
2023-05-09T15:32:42.342Z,54.68
2023-05-09T15:35:27.024Z,55.34
2023-05-09T15:38:13.905Z,55.60
2023-05-09T15:40:58.821Z,55.74
2023-05-09T15:43:43.954Z,55.92
2023-05-09T15:46:28.855Z,56.20
2023-05-09T15:49:13.686Z,56.49
2023-05-09T15:51:58.733Z,57.01
2023-05-09T15:54:43.731Z,56.98
2023-05-09T15:57:28.769Z,56.39
2023-05-09T16:00:13.803Z,56.47
2023-05-09T16:02:59.214Z,56.77
2023-05-09T16:05:44.107Z,57.10
2023-05-09T16:08:29.014Z,56.94
2023-05-09T16:11:14.108Z,57.10
2023-05-09T16:13:58.983Z,57.15
2023-05-09T16:16:44.071Z,57.29
2023-05-09T16:19:28.902Z,56.51
2023-05-09T16:22:13.915Z,56.76
2023-05-09T16:24:58.828Z,57.56
2023-05-09T16:27:43.825Z,57.04
2023-05-09T16:30:28.730Z,57.94
2023-05-09T16:33:13.580Z,57.80
2023-05-09T16:35:58.625Z,57.62
2023-05-09T16:38:43.483Z,57.61
2023-05-09T16:41:28.473Z,57.85
2023-05-09T16:44:13.556Z,57.71
2023-05-09T16:46:58.404Z,58.25
2023-05-09T16:49:43.426Z,58.72
2023-05-09T16:52:28.323Z,58.82
2023-05-09T16:55:13.427Z,58.77
2023-05-09T16:57:58.366Z,58.92
2023-05-09T17:00:43.432Z,58.56
2023-05-09T17:03:28.449Z,59.23
2023-05-09T17:06:13.436Z,59.35
2023-05-09T17:08:58.333Z,59.13
2023-05-09T17:11:43.202Z,58.86
2023-05-09T17:14:28.145Z,59.79
2023-05-09T17:17:13.058Z,58.94
2023-05-09T17:19:58.066Z,58.90
2023-05-09T17:22:42.921Z,58.47
2023-05-09T17:25:27.828Z,58.26
2023-05-09T17:28:12.759Z,57.98
2023-05-09T17:30:57.542Z,56.84
2023-05-09T17:33:42.266Z,57.15
2023-05-09T17:36:27.281Z,57.91
2023-05-09T17:39:12.190Z,58.39
2023-05-09T17:41:57.370Z,59.33
2023-05-09T17:44:44.259Z,59.84
2023-05-09T17:47:29.531Z,60.02
2023-05-09T17:50:14.647Z,60.03
2023-05-09T17:53:00.174Z,59.51
2023-05-09T17:55:45.114Z,58.81
2023-05-09T17:58:29.988Z,58.97
2023-05-09T18:01:15.252Z,58.96
2023-05-09T18:04:00.361Z,58.64
2023-05-09T18:06:45.388Z,58.64
2023-05-09T18:09:30.439Z,59.16
2023-05-09T18:12:15.399Z,59.43
2023-05-09T18:15:00.626Z,59.62
2023-05-09T18:17:45.401Z,59.25
2023-05-09T18:20:30.343Z,59.30
2023-05-09T18:23:15.374Z,59.71
2023-05-09T18:26:00.246Z,59.66
2023-05-09T18:28:45.108Z,59.58
2023-05-09T18:31:30.133Z,59.07
2023-05-09T18:34:17.564Z,60.10
2023-05-09T18:37:02.571Z,60.53
2023-05-09T18:39:47.505Z,60.62
2023-05-09T18:42:32.860Z,60.38
2023-05-09T18:45:17.694Z,60.17
2023-05-09T18:48:03.039Z,60.05
2023-05-09T18:50:48.166Z,60.38
2023-05-09T18:53:33.407Z,61.26
2023-05-09T18:56:18.851Z,60.88
2023-05-09T18:59:03.842Z,60.89
2023-05-09T19:01:49.059Z,61.34
2023-05-09T19:04:37.421Z,61.39
2023-05-09T19:07:22.699Z,61.37
2023-05-09T19:10:08.012Z,61.71
2023-05-09T19:12:53.122Z,62.45
2023-05-09T19:15:42.650Z,62.08
2023-05-09T19:18:28.015Z,62.80
2023-05-09T19:21:13.349Z,62.73
2023-05-09T19:23:58.666Z,62.76
2023-05-09T19:26:43.480Z,62.67
2023-05-09T19:29:28.732Z,62.87
2023-05-09T19:32:14.053Z,62.63
2023-05-09T19:34:59.227Z,62.37
2023-05-09T19:37:46.925Z,62.29
2023-05-09T19:40:32.007Z,62.46
2023-05-09T19:43:17.141Z,62.92
2023-05-09T19:46:02.237Z,62.98
2023-05-09T19:48:47.328Z,62.71
2023-05-09T19:51:32.221Z,62.12
2023-05-09T19:54:16.978Z,61.86
2023-05-09T19:57:02.245Z,61.95
2023-05-09T19:59:49.704Z,61.45
2023-05-09T20:02:34.605Z,61.17
2023-05-09T20:05:19.575Z,61.14
2023-05-09T20:08:04.333Z,61.44
2023-05-09T20:10:49.528Z,61.01
2023-05-09T20:13:34.498Z,61.49
2023-05-09T20:16:19.510Z,61.20
2023-05-09T20:19:04.486Z,60.81
2023-05-09T20:21:49.739Z,60.77
2023-05-09T20:24:35.260Z,60.96
2023-05-09T20:27:20.250Z,61.24
2023-05-09T20:30:05.445Z,62.07
2023-05-09T20:32:50.736Z,62.05
2023-05-09T20:35:35.902Z,61.79
2023-05-09T20:38:20.735Z,61.48
2023-05-09T20:41:05.769Z,60.81
2023-05-09T20:43:50.685Z,60.86
2023-05-09T20:46:35.679Z,60.13
2023-05-09T20:49:20.676Z,60.64
2023-05-09T20:52:05.611Z,60.20
2023-05-09T20:54:50.612Z,60.79
2023-05-09T20:57:35.529Z,61.02
2023-05-09T21:00:20.559Z,61.40
2023-05-09T21:03:05.616Z,61.82
2023-05-09T21:05:50.342Z,61.41
2023-05-09T21:08:35.367Z,61.25
2023-05-09T21:11:20.242Z,60.80
2023-05-09T21:14:05.118Z,60.81
2023-05-09T21:16:50.091Z,61.23
2023-05-09T21:19:34.942Z,60.74
2023-05-09T21:22:19.843Z,60.87
2023-05-09T21:25:04.981Z,60.79
2023-05-09T21:27:49.981Z,60.60
2023-05-09T21:30:35.178Z,61.06
2023-05-09T21:33:20.266Z,61.01
2023-05-09T21:36:05.184Z,61.14
2023-05-09T21:38:50.228Z,61.44
2023-05-09T21:41:35.058Z,60.84
2023-05-09T21:44:20.010Z,60.19
2023-05-09T21:47:05.137Z,60.53
2023-05-09T21:49:49.961Z,60.33
2023-05-09T21:52:35.122Z,60.74
2023-05-09T21:55:20.019Z,61.15
2023-05-09T21:58:05.314Z,61.89
2023-05-09T22:00:50.285Z,61.83
2023-05-09T22:03:35.378Z,61.90
2023-05-09T22:06:20.164Z,62.10
2023-05-09T22:09:05.011Z,62.27
2023-05-09T22:11:49.932Z,62.20
2023-05-09T22:14:39.490Z,62.64
2023-05-09T22:17:33.502Z,61.89
2023-05-09T22:20:18.755Z,62.11
2023-05-09T22:23:03.997Z,62.86
2023-05-09T22:25:48.894Z,62.82
2023-05-09T22:28:33.914Z,62.86
2023-05-09T22:31:18.759Z,62.63
2023-05-09T22:34:03.864Z,62.66
2023-05-09T22:36:48.640Z,62.12
2023-05-09T22:39:33.728Z,62.69
2023-05-09T22:42:18.780Z,62.91
2023-05-09T22:45:03.613Z,62.84
2023-05-09T22:47:48.735Z,63.86
2023-05-09T22:50:33.630Z,63.42
2023-05-09T22:53:18.588Z,63.52
2023-05-09T22:56:03.416Z,62.96
2023-05-09T22:58:48.416Z,63.02
2023-05-09T23:01:33.378Z,62.79
2023-05-09T23:04:18.445Z,62.52
2023-05-09T23:07:03.337Z,62.13
2023-05-09T23:09:48.169Z,62.63
2023-05-09T23:12:33.295Z,62.58
2023-05-09T23:15:18.363Z,61.94
2023-05-09T23:18:03.396Z,62.73
2023-05-09T23:20:48.062Z,62.95
2023-05-09T23:23:32.909Z,63.41
2023-05-09T23:26:17.817Z,63.09
2023-05-09T23:29:02.921Z,63.49
2023-05-09T23:31:47.910Z,64.08
2023-05-09T23:34:32.869Z,64.41
2023-05-09T23:37:18.019Z,64.09
2023-05-09T23:40:02.927Z,63.95
2023-05-09T23:42:47.832Z,64.03
2023-05-09T23:45:32.689Z,63.18
2023-05-09T23:48:17.771Z,62.68
2023-05-09T23:51:02.712Z,62.62
2023-05-09T23:53:47.720Z,62.31
2023-05-09T23:56:32.789Z,61.50
2023-05-09T23:59:17.668Z,61.39
